sensor_id;sensor_type;location;lat;lon;timestamp;pressure;altitude;pressure_sealevel;temperature;humidity
27202;BME280;14717;46.924;15.474;2023-07-31T00:01:03;97730.97;;;18.08;100.00
27202;BME280;14717;46.924;15.474;2023-07-31T00:03:28;97722.91;;;18.27;100.00
27202;BME280;14717;46.924;15.474;2023-07-31T00:05:53;97730.16;;;18.28;100.00
27202;BME280;14717;46.924;15.474;2023-07-31T00:08:19;97725.69;;;18.27;100.00
27202;BME280;14717;46.924;15.474;2023-07-31T00:10:44;97723.19;;;18.45;100.00
27202;BME280;14717;46.924;15.474;2023-07-31T00:13:09;97723.66;;;18.47;100.00
27202;BME280;14717;46.924;15.474;2023-07-31T00:15:35;97723.88;;;18.31;100.00
27202;BME280;14717;46.924;15.474;2023-07-31T00:18:00;97729.63;;;18.14;100.00
27202;BME280;14717;46.924;15.474;2023-07-31T00:20:26;97739.44;;;17.99;100.00
27202;BME280;14717;46.924;15.474;2023-07-31T00:22:52;97732.75;;;17.92;100.00
27202;BME280;14717;46.924;15.474;2023-07-31T00:25:17;97741.56;;;17.82;100.00
27202;BME280;14717;46.924;15.474;2023-07-31T00:27:42;97740.41;;;17.83;100.00
27202;BME280;14717;46.924;15.474;2023-07-31T00:30:10;97750.16;;;17.77;100.00
27202;BME280;14717;46.924;15.474;2023-07-31T00:32:35;97741.97;;;17.92;100.00
27202;BME280;14717;46.924;15.474;2023-07-31T00:35:01;97738.09;;;17.85;100.00
27202;BME280;14717;46.924;15.474;2023-07-31T00:37:27;97743.94;;;17.92;100.00
27202;BME280;14717;46.924;15.474;2023-07-31T00:39:52;97743.81;;;17.89;100.00
27202;BME280;14717;46.924;15.474;2023-07-31T00:42:18;97742.59;;;17.98;100.00
27202;BME280;14717;46.924;15.474;2023-07-31T00:44:43;97740.47;;;18.15;100.00
27202;BME280;14717;46.924;15.474;2023-07-31T00:47:08;97750.75;;;18.23;100.00
27202;BME280;14717;46.924;15.474;2023-07-31T00:49:34;97742.97;;;18.08;100.00
27202;BME280;14717;46.924;15.474;2023-07-31T00:51:59;97731.81;;;17.88;100.00
27202;BME280;14717;46.924;15.474;2023-07-31T00:54:25;97734.56;;;17.76;100.00
27202;BME280;14717;46.924;15.474;2023-07-31T00:56:52;97739.59;;;17.83;100.00
27202;BME280;14717;46.924;15.474;2023-07-31T00:59:18;97742.16;;;18.08;100.00
27202;BME280;14717;46.924;15.474;2023-07-31T01:01:44;97732.25;;;18.10;100.00
27202;BME280;14717;46.924;15.474;2023-07-31T01:04:10;97733.88;;;17.99;100.00
27202;BME280;14717;46.924;15.474;2023-07-31T01:09:36;97716.63;;;17.77;100.00
27202;BME280;14717;46.924;15.474;2023-07-31T01:12:03;97720.66;;;17.68;100.00
27202;BME280;14717;46.924;15.474;2023-07-31T01:14:29;97723.50;;;17.59;100.00
27202;BME280;14717;46.924;15.474;2023-07-31T01:16:55;97726.97;;;17.56;100.00
27202;BME280;14717;46.924;15.474;2023-07-31T01:19:23;97719.69;;;17.64;100.00
27202;BME280;14717;46.924;15.474;2023-07-31T01:25:29;97717.59;;;17.81;100.00
27202;BME280;14717;46.924;15.474;2023-07-31T01:28:07;97721.59;;;17.92;100.00
27202;BME280;14717;46.924;15.474;2023-07-31T01:30:40;97720.91;;;17.95;100.00
27202;BME280;14717;46.924;15.474;2023-07-31T01:33:07;97727.44;;;17.99;100.00
27202;BME280;14717;46.924;15.474;2023-07-31T01:35:34;97715.16;;;18.12;100.00
27202;BME280;14717;46.924;15.474;2023-07-31T01:38:00;97724.03;;;18.14;100.00
27202;BME280;14717;46.924;15.474;2023-07-31T01:40:25;97727.00;;;18.09;100.00
27202;BME280;14717;46.924;15.474;2023-07-31T01:42:51;97729.78;;;18.09;100.00
27202;BME280;14717;46.924;15.474;2023-07-31T01:45:16;97743.28;;;17.95;100.00
27202;BME280;14717;46.924;15.474;2023-07-31T01:47:41;97742.75;;;17.81;100.00
27202;BME280;14717;46.924;15.474;2023-07-31T01:50:07;97750.56;;;17.88;100.00
27202;BME280;14717;46.924;15.474;2023-07-31T01:52:32;97738.13;;;17.65;100.00
27202;BME280;14717;46.924;15.474;2023-07-31T01:54:58;97735.03;;;17.58;100.00
27202;BME280;14717;46.924;15.474;2023-07-31T01:57:23;97732.78;;;17.51;100.00
27202;BME280;14717;46.924;15.474;2023-07-31T01:59:48;97737.41;;;17.48;100.00
27202;BME280;14717;46.924;15.474;2023-07-31T02:02:15;97732.09;;;17.54;100.00
27202;BME280;14717;46.924;15.474;2023-07-31T02:04:41;97744.31;;;17.50;100.00
27202;BME280;14717;46.924;15.474;2023-07-31T02:07:06;97733.06;;;17.58;100.00
27202;BME280;14717;46.924;15.474;2023-07-31T02:09:31;97734.81;;;17.63;100.00
27202;BME280;14717;46.924;15.474;2023-07-31T02:11:57;97739.88;;;17.69;100.00
27202;BME280;14717;46.924;15.474;2023-07-31T02:14:22;97734.38;;;17.81;100.00
27202;BME280;14717;46.924;15.474;2023-07-31T02:16:47;97750.16;;;17.77;100.00
27202;BME280;14717;46.924;15.474;2023-07-31T02:19:13;97754.47;;;17.75;100.00
27202;BME280;14717;46.924;15.474;2023-07-31T02:21:38;97748.19;;;17.78;100.00
27202;BME280;14717;46.924;15.474;2023-07-31T02:24:04;97749.97;;;17.82;100.00
27202;BME280;14717;46.924;15.474;2023-07-31T02:26:29;97757.94;;;17.72;100.00
27202;BME280;14717;46.924;15.474;2023-07-31T02:28:55;97748.84;;;17.54;100.00
27202;BME280;14717;46.924;15.474;2023-07-31T02:31:20;97746.94;;;17.47;100.00
27202;BME280;14717;46.924;15.474;2023-07-31T02:33:45;97749.94;;;17.42;100.00
27202;BME280;14717;46.924;15.474;2023-07-31T02:36:10;97744.16;;;17.47;100.00
27202;BME280;14717;46.924;15.474;2023-07-31T02:38:36;97746.94;;;17.47;100.00
27202;BME280;14717;46.924;15.474;2023-07-31T02:41:01;97753.72;;;17.46;100.00
27202;BME280;14717;46.924;15.474;2023-07-31T02:43:26;97758.63;;;17.48;100.00
27202;BME280;14717;46.924;15.474;2023-07-31T02:45:52;97749.53;;;17.51;100.00
27202;BME280;14717;46.924;15.474;2023-07-31T02:48:18;97755.81;;;17.48;100.00
27202;BME280;14717;46.924;15.474;2023-07-31T02:50:44;97758.25;;;17.30;100.00
27202;BME280;14717;46.924;15.474;2023-07-31T02:53:09;97756.34;;;17.13;100.00
27202;BME280;14717;46.924;15.474;2023-07-31T02:55:35;97752.44;;;17.06;100.00
27202;BME280;14717;46.924;15.474;2023-07-31T02:58:00;97752.91;;;17.08;100.00
27202;BME280;14717;46.924;15.474;2023-07-31T03:00:25;97755.31;;;17.26;100.00
27202;BME280;14717;46.924;15.474;2023-07-31T03:02:51;97769.34;;;17.38;100.00
27202;BME280;14717;46.924;15.474;2023-07-31T03:05:16;97766.34;;;17.43;100.00
27202;BME280;14717;46.924;15.474;2023-07-31T03:07:42;97769.78;;;17.48;100.00
27202;BME280;14717;46.924;15.474;2023-07-31T03:10:07;97758.75;;;17.52;100.00
27202;BME280;14717;46.924;15.474;2023-07-31T03:12:33;97759.16;;;17.42;100.00
27202;BME280;14717;46.924;15.474;2023-07-31T03:14:58;97748.19;;;17.37;100.00
27202;BME280;14717;46.924;15.474;2023-07-31T03:17:23;97754.78;;;17.33;100.00
27202;BME280;14717;46.924;15.474;2023-07-31T03:19:49;97754.09;;;17.36;100.00
27202;BME280;14717;46.924;15.474;2023-07-31T03:22:14;97764.81;;;17.34;100.00
27202;BME280;14717;46.924;15.474;2023-07-31T03:24:39;97765.59;;;17.34;100.00
27202;BME280;14717;46.924;15.474;2023-07-31T03:27:05;97771.13;;;17.43;100.00
27202;BME280;14717;46.924;15.474;2023-07-31T03:29:31;97767.69;;;17.46;100.00
27202;BME280;14717;46.924;15.474;2023-07-31T03:31:56;97763.91;;;17.13;100.00
27202;BME280;14717;46.924;15.474;2023-07-31T03:34:21;97777.28;;;16.99;100.00
27202;BME280;14717;46.924;15.474;2023-07-31T03:36:47;97772.81;;;17.06;100.00
27202;BME280;14717;46.924;15.474;2023-07-31T03:39:12;97776.50;;;16.90;100.00
27202;BME280;14717;46.924;15.474;2023-07-31T03:41:37;97789.69;;;16.81;100.00
27202;BME280;14717;46.924;15.474;2023-07-31T03:44:03;97783.00;;;16.65;100.00
27202;BME280;14717;46.924;15.474;2023-07-31T03:46:28;97784.75;;;16.78;100.00
27202;BME280;14717;46.924;15.474;2023-07-31T03:48:54;97788.59;;;17.03;100.00
27202;BME280;14717;46.924;15.474;2023-07-31T03:51:19;97784.41;;;17.17;100.00
27202;BME280;14717;46.924;15.474;2023-07-31T03:53:44;97785.75;;;17.19;100.00
27202;BME280;14717;46.924;15.474;2023-07-31T03:56:10;97785.84;;;16.94;100.00
27202;BME280;14717;46.924;15.474;2023-07-31T03:58:36;97780.97;;;16.83;100.00
27202;BME280;14717;46.924;15.474;2023-07-31T04:01:02;97796.00;;;16.99;100.00
27202;BME280;14717;46.924;15.474;2023-07-31T04:03:28;97787.97;;;16.89;100.00
27202;BME280;14717;46.924;15.474;2023-07-31T04:05:54;97784.75;;;16.78;100.00
27202;BME280;14717;46.924;15.474;2023-07-31T04:08:20;97780.97;;;16.83;100.00
27202;BME280;14717;46.924;15.474;2023-07-31T04:10:46;97782.91;;;16.82;100.00
27202;BME280;14717;46.924;15.474;2023-07-31T04:13:12;97790.16;;;16.83;100.00
27202;BME280;14717;46.924;15.474;2023-07-31T04:15:37;97778.44;;;16.98;100.00
27202;BME280;14717;46.924;15.474;2023-07-31T04:18:04;97785.28;;;17.09;100.00
27202;BME280;14717;46.924;15.474;2023-07-31T04:20:29;97783.69;;;17.00;100.00
27202;BME280;14717;46.924;15.474;2023-07-31T04:22:54;97784.00;;;16.98;100.00
27202;BME280;14717;46.924;15.474;2023-07-31T04:25:20;97782.16;;;17.10;100.00
27202;BME280;14717;46.924;15.474;2023-07-31T04:27:45;97780.16;;;17.19;100.00
27202;BME280;14717;46.924;15.474;2023-07-31T04:30:11;97775.38;;;17.20;100.00
27202;BME280;14717;46.924;15.474;2023-07-31T04:32:36;97770.78;;;17.24;100.00
27202;BME280;14717;46.924;15.474;2023-07-31T04:35:02;97774.72;;;17.23;100.00
27202;BME280;14717;46.924;15.474;2023-07-31T04:37:27;97784.03;;;17.27;100.00
27202;BME280;14717;46.924;15.474;2023-07-31T04:39:53;97784.41;;;17.25;100.00
27202;BME280;14717;46.924;15.474;2023-07-31T04:42:18;97784.94;;;17.19;100.00
27202;BME280;14717;46.924;15.474;2023-07-31T04:44:44;97791.47;;;17.14;100.00
27202;BME280;14717;46.924;15.474;2023-07-31T04:47:09;97788.19;;;17.21;100.00
27202;BME280;14717;46.924;15.474;2023-07-31T04:49:35;97793.66;;;17.01;100.00
27202;BME280;14717;46.924;15.474;2023-07-31T04:52:00;97795.94;;;17.07;100.00
27202;BME280;14717;46.924;15.474;2023-07-31T04:54:25;97791.94;;;17.25;100.00
27202;BME280;14717;46.924;15.474;2023-07-31T04:56:51;97793.94;;;17.24;100.00
27202;BME280;14717;46.924;15.474;2023-07-31T04:59:17;97790.53;;;17.19;100.00
27202;BME280;14717;46.924;15.474;2023-07-31T05:01:43;97791.31;;;17.19;100.00
27202;BME280;14717;46.924;15.474;2023-07-31T05:04:12;97789.81;;;17.22;100.00
27202;BME280;14717;46.924;15.474;2023-07-31T05:06:37;97787.53;;;17.24;100.00
27202;BME280;14717;46.924;15.474;2023-07-31T05:09:02;97788.47;;;17.28;100.00
27202;BME280;14717;46.924;15.474;2023-07-31T05:11:28;97793.72;;;17.29;100.00
27202;BME280;14717;46.924;15.474;2023-07-31T05:13:53;97791.59;;;17.26;100.00
27202;BME280;14717;46.924;15.474;2023-07-31T05:16:18;97791.81;;;17.50;100.00
27202;BME280;14717;46.924;15.474;2023-07-31T05:18:44;97787.31;;;17.57;100.00
27202;BME280;14717;46.924;15.474;2023-07-31T05:21:09;97798.09;;;17.67;100.00
27202;BME280;14717;46.924;15.474;2023-07-31T05:23:34;97791.34;;;17.68;100.00
27202;BME280;14717;46.924;15.474;2023-07-31T05:26:06;97795.56;;;17.74;100.00
27202;BME280;14717;46.924;15.474;2023-07-31T05:28:34;97798.09;;;17.88;100.00
27202;BME280;14717;46.924;15.474;2023-07-31T05:31:00;97806.31;;;18.13;100.00
27202;BME280;14717;46.924;15.474;2023-07-31T05:33:26;97807.91;;;18.34;100.00
27202;BME280;14717;46.924;15.474;2023-07-31T05:35:51;97820.91;;;18.50;100.00
27202;BME280;14717;46.924;15.474;2023-07-31T05:38:17;97814.16;;;18.51;100.00
27202;BME280;14717;46.924;15.474;2023-07-31T05:40:42;97825.16;;;18.68;100.00
27202;BME280;14717;46.924;15.474;2023-07-31T05:43:08;97824.28;;;18.88;100.00
27202;BME280;14717;46.924;15.474;2023-07-31T05:45:34;97822.19;;;18.85;100.00
27202;BME280;14717;46.924;15.474;2023-07-31T05:48:00;97828.69;;;18.77;100.00
27202;BME280;14717;46.924;15.474;2023-07-31T05:50:25;97824.16;;;18.84;100.00
27202;BME280;14717;46.924;15.474;2023-07-31T05:52:51;97830.84;;;18.92;99.79
27202;BME280;14717;46.924;15.474;2023-07-31T05:55:16;97834.97;;;19.06;100.00
27202;BME280;14717;46.924;15.474;2023-07-31T05:57:42;97842.22;;;19.19;100.00
27202;BME280;14717;46.924;15.474;2023-07-31T06:00:08;97837.44;;;19.43;100.00
27202;BME280;14717;46.924;15.474;2023-07-31T06:02:33;97845.88;;;19.43;100.00
27202;BME280;14717;46.924;15.474;2023-07-31T06:05:02;97836.53;;;19.27;100.00
27202;BME280;14717;46.924;15.474;2023-07-31T06:07:29;97836.06;;;19.37;100.00
27202;BME280;14717;46.924;15.474;2023-07-31T06:09:54;97836.63;;;19.66;100.00
27202;BME280;14717;46.924;15.474;2023-07-31T06:12:20;97834.75;;;19.94;98.60
27202;BME280;14717;46.924;15.474;2023-07-31T06:14:46;97838.13;;;20.00;97.21
27202;BME280;14717;46.924;15.474;2023-07-31T06:17:11;97830.19;;;19.90;100.00
27202;BME280;14717;46.924;15.474;2023-07-31T06:19:36;97834.22;;;20.16;100.00
27202;BME280;14717;46.924;15.474;2023-07-31T06:22:02;97834.63;;;20.03;100.00
27202;BME280;14717;46.924;15.474;2023-07-31T06:24:28;97837.13;;;20.19;100.00
27202;BME280;14717;46.924;15.474;2023-07-31T06:26:53;97834.34;;;20.19;99.93
27202;BME280;14717;46.924;15.474;2023-07-31T06:29:18;97832.03;;;20.09;100.00
27202;BME280;14717;46.924;15.474;2023-07-31T06:31:44;97820.72;;;19.94;98.11
27202;BME280;14717;46.924;15.474;2023-07-31T06:34:09;97830.56;;;20.00;96.89
27202;BME280;14717;46.924;15.474;2023-07-31T06:36:35;97832.94;;;20.25;92.93
27202;BME280;14717;46.924;15.474;2023-07-31T06:39:00;97830.59;;;20.54;87.93
27202;BME280;14717;46.924;15.474;2023-07-31T06:41:25;97831.97;;;20.60;80.72
27202;BME280;14717;46.924;15.474;2023-07-31T06:43:51;97834.41;;;20.74;86.77
27202;BME280;14717;46.924;15.474;2023-07-31T06:46:16;97827.22;;;21.03;85.09
27202;BME280;14717;46.924;15.474;2023-07-31T06:48:41;97829.31;;;21.22;84.47
27202;BME280;14717;46.924;15.474;2023-07-31T06:51:07;97822.97;;;21.40;84.24
27202;BME280;14717;46.924;15.474;2023-07-31T06:53:32;97821.28;;;21.51;83.82
27202;BME280;14717;46.924;15.474;2023-07-31T06:55:57;97823.78;;;21.71;85.45
27202;BME280;14717;46.924;15.474;2023-07-31T06:58:23;97815.72;;;22.04;84.17
27202;BME280;14717;46.924;15.474;2023-07-31T07:00:48;97822.50;;;22.18;86.27
27202;BME280;14717;46.924;15.474;2023-07-31T07:03:16;97822.50;;;22.18;84.03
27202;BME280;14717;46.924;15.474;2023-07-31T07:05:41;97819.28;;;22.35;80.05
27202;BME280;14717;46.924;15.474;2023-07-31T07:08:07;97812.53;;;22.58;78.89
27202;BME280;14717;46.924;15.474;2023-07-31T07:10:32;97815.72;;;22.57;76.85
27202;BME280;14717;46.924;15.474;2023-07-31T07:12:58;97820.75;;;22.66;77.57
27202;BME280;14717;46.924;15.474;2023-07-31T07:15:23;97817.34;;;22.76;78.42
27202;BME280;14717;46.924;15.474;2023-07-31T07:17:49;97806.06;;;22.76;76.66
27202;BME280;14717;46.924;15.474;2023-07-31T07:20:14;97814.09;;;22.37;78.77
27202;BME280;14717;46.924;15.474;2023-07-31T07:22:40;97819.25;;;22.72;80.16
27202;BME280;14717;46.924;15.474;2023-07-31T07:25:08;97818.13;;;22.92;79.64
27202;BME280;14717;46.924;15.474;2023-07-31T07:27:34;97815.19;;;23.08;77.41
27202;BME280;14717;46.924;15.474;2023-07-31T07:29:59;97817.88;;;23.23;76.77
27202;BME280;14717;46.924;15.474;2023-07-31T07:32:24;97823.63;;;23.30;72.07
27202;BME280;14717;46.924;15.474;2023-07-31T07:34:50;97821.56;;;23.05;71.86
27202;BME280;14717;46.924;15.474;2023-07-31T07:37:15;97822.97;;;23.14;70.78
27202;BME280;14717;46.924;15.474;2023-07-31T07:39:41;97825.72;;;23.33;71.36
27202;BME280;14717;46.924;15.474;2023-07-31T07:42:06;97819.31;;;23.36;71.18
27202;BME280;14717;46.924;15.474;2023-07-31T07:44:32;97818.31;;;23.47;72.00
27202;BME280;14717;46.924;15.474;2023-07-31T07:46:57;97820.66;;;23.42;71.96
27202;BME280;14717;46.924;15.474;2023-07-31T07:49:23;97824.41;;;23.49;71.21
27202;BME280;14717;46.924;15.474;2023-07-31T07:51:48;97821.69;;;23.56;71.69
27202;BME280;14717;46.924;15.474;2023-07-31T07:54:14;97815.91;;;23.68;72.63
27202;BME280;14717;46.924;15.474;2023-07-31T07:56:42;97815.13;;;23.71;72.10
27202;BME280;14717;46.924;15.474;2023-07-31T07:59:08;97817.69;;;23.79;72.77
27202;BME280;14717;46.924;15.474;2023-07-31T08:01:33;97814.44;;;24.03;71.38
27202;BME280;14717;46.924;15.474;2023-07-31T08:03:59;97811.56;;;23.99;71.95
27202;BME280;14717;46.924;15.474;2023-07-31T08:06:24;97816.06;;;24.30;73.59
27202;BME280;14717;46.924;15.474;2023-07-31T08:08:50;97813.97;;;24.27;74.63
27202;BME280;14717;46.924;15.474;2023-07-31T08:11:15;97811.72;;;24.36;71.32
27202;BME280;14717;46.924;15.474;2023-07-31T08:13:40;97810.88;;;24.35;71.45
27202;BME280;14717;46.924;15.474;2023-07-31T08:16:06;97803.38;;;24.46;71.97
27202;BME280;14717;46.924;15.474;2023-07-31T08:18:31;97810.09;;;24.35;70.00
27202;BME280;14717;46.924;15.474;2023-07-31T08:20:57;97806.63;;;24.48;68.05
27202;BME280;14717;46.924;15.474;2023-07-31T08:23:23;97809.28;;;24.34;68.07
27202;BME280;14717;46.924;15.474;2023-07-31T08:25:48;97812.31;;;24.51;68.86
27202;BME280;14717;46.924;15.474;2023-07-31T08:28:14;97804.38;;;24.60;68.45
27202;BME280;14717;46.924;15.474;2023-07-31T08:30:40;97802.91;;;24.70;66.80
27202;BME280;14717;46.924;15.474;2023-07-31T08:33:06;97809.31;;;24.67;66.76
27202;BME280;14717;46.924;15.474;2023-07-31T08:35:32;97794.41;;;24.70;66.25
27202;BME280;14717;46.924;15.474;2023-07-31T08:37:57;97795.25;;;24.74;66.73
27202;BME280;14717;46.924;15.474;2023-07-31T08:40:22;97787.56;;;25.03;67.97
27202;BME280;14717;46.924;15.474;2023-07-31T08:42:49;97802.03;;;24.98;66.16
27202;BME280;14717;46.924;15.474;2023-07-31T08:45:16;97794.19;;;24.85;65.28
27202;BME280;14717;46.924;15.474;2023-07-31T08:47:50;97791.78;;;24.87;64.93
27202;BME280;14717;46.924;15.474;2023-07-31T08:50:19;97777.13;;;25.11;68.40
27202;BME280;14717;46.924;15.474;2023-07-31T08:52:46;97782.03;;;25.17;67.10
27202;BME280;14717;46.924;15.474;2023-07-31T08:55:12;97784.47;;;25.19;65.07
27202;BME280;14717;46.924;15.474;2023-07-31T08:57:38;97783.84;;;25.35;64.40
27202;BME280;14717;46.924;15.474;2023-07-31T09:00:05;97786.22;;;25.33;65.02
27202;BME280;14717;46.924;15.474;2023-07-31T09:02:50;97786.75;;;25.42;64.43
27202;BME280;14717;46.924;15.474;2023-07-31T09:05:17;97784.31;;;25.44;62.81
27202;BME280;14717;46.924;15.474;2023-07-31T09:07:45;97793.66;;;25.48;63.65
27202;BME280;14717;46.924;15.474;2023-07-31T09:10:12;97787.44;;;25.72;63.75
27202;BME280;14717;46.924;15.474;2023-07-31T09:12:38;97790.28;;;25.75;63.77
27202;BME280;14717;46.924;15.474;2023-07-31T09:15:05;97795.56;;;25.77;63.38
27202;BME280;14717;46.924;15.474;2023-07-31T09:17:32;97784.59;;;25.72;64.07
27202;BME280;14717;46.924;15.474;2023-07-31T09:20:12;97794.72;;;25.73;64.93
27202;BME280;14717;46.924;15.474;2023-07-31T09:22:39;97782.78;;;26.00;63.53
27202;BME280;14717;46.924;15.474;2023-07-31T09:25:24;97788.66;;;26.28;61.86
27202;BME280;14717;46.924;15.474;2023-07-31T09:27:56;97785.06;;;26.31;61.29
27202;BME280;14717;46.924;15.474;2023-07-31T09:30:22;97773.94;;;26.09;62.11
27202;BME280;14717;46.924;15.474;2023-07-31T09:32:49;97779.63;;;26.15;62.55
27202;BME280;14717;46.924;15.474;2023-07-31T09:35:28;97770.31;;;26.12;61.97
27202;BME280;14717;46.924;15.474;2023-07-31T09:37:57;97773.13;;;26.08;62.40
27202;BME280;14717;46.924;15.474;2023-07-31T09:40:33;97770.91;;;26.38;61.75
27202;BME280;14717;46.924;15.474;2023-07-31T09:43:03;97768.84;;;26.28;65.58
27202;BME280;14717;46.924;15.474;2023-07-31T09:45:29;97770.78;;;26.24;61.92
27202;BME280;14717;46.924;15.474;2023-07-31T09:47:56;97761.13;;;26.28;64.32
27202;BME280;14717;46.924;15.474;2023-07-31T09:50:23;97758.84;;;26.55;62.84
27202;BME280;14717;46.924;15.474;2023-07-31T09:52:50;97758.03;;;26.54;63.47
27202;BME280;14717;46.924;15.474;2023-07-31T09:55:16;97751.50;;;26.50;60.58
27202;BME280;14717;46.924;15.474;2023-07-31T09:57:44;97753.94;;;26.48;59.29
27202;BME280;14717;46.924;15.474;2023-07-31T10:00:11;97750.31;;;26.51;59.48
27202;BME280;14717;46.924;15.474;2023-07-31T10:02:37;97738.19;;;26.61;60.29
27202;BME280;14717;46.924;15.474;2023-07-31T10:05:05;97732.97;;;26.73;60.18
27202;BME280;14717;46.924;15.474;2023-07-31T10:07:31;97738.78;;;27.11;61.07
27202;BME280;14717;46.924;15.474;2023-07-31T10:09:59;97750.03;;;26.84;58.96
27202;BME280;14717;46.924;15.474;2023-07-31T10:12:26;97729.66;;;26.51;58.24
27202;BME280;14717;46.924;15.474;2023-07-31T10:14:54;97735.25;;;26.37;60.82
27202;BME280;14717;46.924;15.474;2023-07-31T10:17:21;97733.72;;;26.60;61.58
27202;BME280;14717;46.924;15.474;2023-07-31T10:19:48;97731.41;;;26.90;62.44
27202;BME280;14717;46.924;15.474;2023-07-31T10:22:14;97724.16;;;27.06;58.84
27202;BME280;14717;46.924;15.474;2023-07-31T10:24:42;97717.69;;;26.99;59.46
27202;BME280;14717;46.924;15.474;2023-07-31T10:27:09;97728.91;;;26.71;61.14
27202;BME280;14717;46.924;15.474;2023-07-31T10:29:36;97719.53;;;26.56;63.06
27202;BME280;14717;46.924;15.474;2023-07-31T10:32:02;97722.47;;;26.84;60.87
27202;BME280;14717;46.924;15.474;2023-07-31T10:34:33;97707.13;;;26.96;61.89
27202;BME280;14717;46.924;15.474;2023-07-31T10:39:57;97712.44;;;27.35;60.27
27202;BME280;14717;46.924;15.474;2023-07-31T10:45:38;97693.25;;;26.70;63.27
27202;BME280;14717;46.924;15.474;2023-07-31T10:48:12;97701.47;;;27.02;62.94
27202;BME280;14717;46.924;15.474;2023-07-31T10:50:40;97707.97;;;27.13;62.13
27202;BME280;14717;46.924;15.474;2023-07-31T10:53:31;97705.56;;;27.43;60.93
27202;BME280;14717;46.924;15.474;2023-07-31T10:56:07;97706.34;;;27.43;59.84
27202;BME280;14717;46.924;15.474;2023-07-31T10:58:33;97700.66;;;27.05;61.82
27202;BME280;14717;46.924;15.474;2023-07-31T11:01:03;97694.13;;;26.88;61.34
27202;BME280;14717;46.924;15.474;2023-07-31T11:03:45;97703.09;;;27.21;60.33
27202;BME280;14717;46.924;15.474;2023-07-31T11:06:12;97698.66;;;27.20;57.92
27202;BME280;14717;46.924;15.474;2023-07-31T11:08:43;97698.25;;;27.28;58.12
27202;BME280;14717;46.924;15.474;2023-07-31T11:11:10;97692.56;;;27.21;57.75
27202;BME280;14717;46.924;15.474;2023-07-31T11:16:06;97693.38;;;27.18;59.38
27202;BME280;14717;46.924;15.474;2023-07-31T11:18:31;97690.16;;;27.20;58.13
27202;BME280;14717;46.924;15.474;2023-07-31T11:20:56;97678.78;;;27.30;58.38
27202;BME280;14717;46.924;15.474;2023-07-31T11:23:22;97672.31;;;27.47;60.15
27202;BME280;14717;46.924;15.474;2023-07-31T11:25:48;97679.56;;;27.34;59.75
27202;BME280;14717;46.924;15.474;2023-07-31T11:28:15;97671.47;;;27.43;57.87
27202;BME280;14717;46.924;15.474;2023-07-31T11:30:42;97675.13;;;27.68;57.75
27202;BME280;14717;46.924;15.474;2023-07-31T11:33:10;97665.00;;;27.60;58.21
27202;BME280;14717;46.924;15.474;2023-07-31T11:35:41;97661.28;;;27.80;59.58
27202;BME280;14717;46.924;15.474;2023-07-31T11:38:07;97653.59;;;27.74;57.12
27202;BME280;14717;46.924;15.474;2023-07-31T11:40:41;97652.38;;;27.82;58.30
27202;BME280;14717;46.924;15.474;2023-07-31T11:43:07;97652.81;;;27.66;57.60
27202;BME280;14717;46.924;15.474;2023-07-31T11:45:34;97656.88;;;27.76;56.27
27202;BME280;14717;46.924;15.474;2023-07-31T11:48:01;97656.00;;;27.89;56.14
27202;BME280;14717;46.924;15.474;2023-07-31T11:50:26;97654.84;;;27.69;57.86
27202;BME280;14717;46.924;15.474;2023-07-31T11:52:59;97652.81;;;27.35;56.21
27202;BME280;14717;46.924;15.474;2023-07-31T11:55:26;97639.03;;;26.96;57.27
27202;BME280;14717;46.924;15.474;2023-07-31T11:57:54;97635.81;;;26.90;58.73
27202;BME280;14717;46.924;15.474;2023-07-31T12:00:21;97623.66;;;27.28;57.90
27202;BME280;14717;46.924;15.474;2023-07-31T12:02:46;97628.03;;;27.81;59.07
27202;BME280;14717;46.924;15.474;2023-07-31T12:05:13;97617.84;;;27.93;57.16
27202;BME280;14717;46.924;15.474;2023-07-31T12:07:48;97624.34;;;27.90;55.94
27202;BME280;14717;46.924;15.474;2023-07-31T12:10:24;97617.41;;;28.02;56.90
27202;BME280;14717;46.924;15.474;2023-07-31T12:13:07;97614.59;;;27.91;56.29
27202;BME280;14717;46.924;15.474;2023-07-31T12:15:38;97603.31;;;27.64;58.58
27202;BME280;14717;46.924;15.474;2023-07-31T12:18:08;97606.59;;;27.38;58.37
27202;BME280;14717;46.924;15.474;2023-07-31T12:20:34;97594.84;;;27.15;57.64
27202;BME280;14717;46.924;15.474;2023-07-31T12:22:59;97594.41;;;27.34;56.97
27202;BME280;14717;46.924;15.474;2023-07-31T12:25:32;97585.06;;;27.44;58.19
27202;BME280;14717;46.924;15.474;2023-07-31T12:27:58;97583.00;;;27.69;57.07
27202;BME280;14717;46.924;15.474;2023-07-31T12:32:54;97591.09;;;27.81;57.71
27202;BME280;14717;46.924;15.474;2023-07-31T12:35:19;97587.09;;;27.61;58.17
27202;BME280;14717;46.924;15.474;2023-07-31T12:37:44;97580.56;;;27.78;56.94
27202;BME280;14717;46.924;15.474;2023-07-31T12:40:10;97576.81;;;27.98;56.63
27202;BME280;14717;46.924;15.474;2023-07-31T12:42:36;97568.28;;;28.01;56.80
27202;BME280;14717;46.924;15.474;2023-07-31T12:45:01;97566.41;;;27.67;56.33
27202;BME280;14717;46.924;15.474;2023-07-31T12:47:26;97569.28;;;27.46;58.23
27202;BME280;14717;46.924;15.474;2023-07-31T12:49:52;97566.78;;;27.73;56.87
27202;BME280;14717;46.924;15.474;2023-07-31T12:52:17;97557.00;;;27.81;57.24
27202;BME280;14717;46.924;15.474;2023-07-31T12:54:42;97546.03;;;27.83;57.27
27202;BME280;14717;46.924;15.474;2023-07-31T12:57:08;97546.50;;;27.74;56.26
27202;BME280;14717;46.924;15.474;2023-07-31T12:59:33;97548.13;;;27.65;56.03